Time;durP1;ratioP1;P1;durP2;ratioP2;P2;SDS_P1;SDS_P2;PMS_P1;PMS_P2;Temp;Humidity;BMP_temperature;BMP_pressure;BME280_temperature;BME280_humidity;BME280_pressure;Samples;Min_cycle;Max_cycle;Signal;HPM_P1;HPM_P2
2023/01/15 00:01:51;;;;;;;1.35;0.30;;;11.60;99.90;;;;;;4950922;29;20051;-77
2023/01/15 00:04:18;;;;;;;5.00;0.30;;;11.60;99.90;;;;;;4943907;29;20058;-77
2023/01/15 00:06:45;;;;;;;0.80;0.25;;;11.60;99.90;;;;;;4943065;29;20080;-78
2023/01/15 00:09:15;;;;;;;0.68;0.30;;;11.60;99.90;;;;;;4944447;28;20052;-76
2023/01/15 00:11:42;;;;;;;;;;;11.60;99.90;;;;;;4941875;29;20040;-77
2023/01/15 00:14:09;;;;;;;0.68;0.20;;;11.60;99.90;;;;;;4940096;29;20410;-77
2023/01/15 00:16:35;;;;;;;1.38;0.25;;;11.60;99.90;;;;;;4938018;29;20047;-77
2023/01/15 00:19:03;;;;;;;0.43;0.30;;;11.60;99.90;;;;;;4951601;28;20071;-78
2023/01/15 00:21:30;;;;;;;1.58;0.25;;;11.60;99.90;;;;;;4962021;28;20058;-77
2023/01/15 00:29:28;;;;;;;0.82;0.28;;;11.60;99.90;;;;;;4947215;29;20051;-77
2023/01/15 00:32:04;;;;;;;0.17;0.17;;;11.60;99.90;;;;;;4943331;29;20047;-77
2023/01/15 00:34:31;;;;;;;0.43;0.25;;;11.60;99.90;;;;;;4943638;29;20047;-77
2023/01/15 00:36:58;;;;;;;0.20;0.20;;;11.60;99.90;;;;;;4942856;28;20469;-77
2023/01/15 00:39:25;;;;;;;0.47;0.30;;;11.60;99.90;;;;;;4939710;28;20059;-76
2023/01/15 00:41:53;;;;;;;0.30;0.20;;;11.70;99.90;;;;;;4938471;29;20040;-76
2023/01/15 00:44:20;;;;;;;0.47;0.20;;;11.60;99.90;;;;;;4936574;29;20417;-76
2023/01/15 00:46:47;;;;;;;0.50;0.20;;;11.60;99.90;;;;;;4946158;29;20040;-77
2023/01/15 00:49:14;;;;;;;0.40;0.20;;;11.60;99.90;;;;;;4940357;29;20064;-77
2023/01/15 00:51:41;;;;;;;1.55;0.40;;;11.60;99.90;;;;;;4946957;28;20051;-77
2023/01/15 00:54:07;;;;;;;1.13;0.20;;;11.70;99.90;;;;;;4948284;28;20051;-77
2023/01/15 00:56:35;;;;;;;0.35;0.20;;;11.70;99.90;;;;;;4941826;29;20106;-77
2023/01/15 00:59:03;;;;;;;0.20;0.20;;;11.70;99.90;;;;;;4942870;29;20059;-77
2023/01/15 01:01:31;;;;;;;1.42;0.28;;;11.60;99.90;;;;;;4942733;29;20135;-77
2023/01/15 01:03:57;;;;;;;0.60;0.22;;;11.60;99.90;;;;;;4941098;28;20079;-76
2023/01/15 01:06:24;;;;;;;0.55;0.20;;;11.60;99.90;;;;;;4938130;29;20063;-77
2023/01/15 01:08:51;;;;;;;0.65;0.20;;;11.60;99.90;;;;;;4936886;29;20070;-77
2023/01/15 01:11:25;;;;;;;0.47;0.30;;;11.60;99.90;;;;;;4941997;29;20047;-77
2023/01/15 01:13:55;;;;;;;1.08;0.30;;;11.60;99.90;;;;;;4946182;29;20090;-76
2023/01/15 01:16:26;;;;;;;0.20;0.20;;;11.60;99.90;;;;;;4945238;28;20060;-78
2023/01/15 01:18:53;;;;;;;0.57;0.28;;;11.60;99.90;;;;;;4946309;29;20082;-78
2023/01/15 01:21:20;;;;;;;0.10;0.10;;;11.60;99.90;;;;;;4946253;29;20047;-78
2023/01/15 01:23:47;;;;;;;0.60;0.20;;;11.60;99.90;;;;;;4942690;28;20048;-78
2023/01/15 01:26:14;;;;;;;0.60;0.22;;;11.60;99.90;;;;;;4942744;28;20053;-78
2023/01/15 01:28:41;;;;;;;0.30;0.30;;;11.60;99.90;;;;;;4940391;29;20070;-78
2023/01/15 01:31:08;;;;;;;0.88;0.30;;;11.60;99.90;;;;;;4938577;29;20074;-78
2023/01/15 01:33:35;;;;;;;0.40;0.20;;;11.60;99.90;;;;;;4951443;28;20055;-77
2023/01/15 01:36:02;;;;;;;1.75;0.28;;;11.60;99.90;;;;;;4934324;29;20138;-78
2023/01/15 01:38:29;;;;;;;0.10;0.10;;;11.60;99.90;;;;;;4950998;28;20576;-78
2023/01/15 01:40:56;;;;;;;0.32;0.20;;;11.60;99.90;;;;;;4945527;28;20051;-78
2023/01/15 01:43:25;;;;;;;0.10;0.10;;;11.60;99.90;;;;;;4945368;28;20047;-78
2023/01/15 01:45:52;;;;;;;0.38;0.20;;;11.60;99.90;;;;;;4944775;29;20049;-78
2023/01/15 01:48:25;;;;;;;0.30;0.20;;;11.70;99.90;;;;;;4945176;29;20043;-79
2023/01/15 01:50:55;;;;;;;0.35;0.20;;;11.70;99.90;;;;;;4941537;29;20063;-78
2023/01/15 01:53:27;;;;;;;0.75;0.30;;;11.70;99.90;;;;;;4946216;29;20055;-78
2023/01/15 01:55:56;;;;;;;0.77;0.20;;;11.70;99.90;;;;;;4942104;29;20051;-78
2023/01/15 01:58:26;;;;;;;0.85;0.20;;;11.70;99.90;;;;;;4933161;29;20048;-78
2023/01/15 02:00:52;;;;;;;0.10;0.10;;;11.70;99.90;;;;;;4935629;29;20482;-78
2023/01/15 02:03:22;;;;;;;0.20;0.20;;;11.80;99.90;;;;;;4961484;28;20492;-78
2023/01/15 02:05:53;;;;;;;0.20;0.20;;;11.80;99.90;;;;;;4947606;29;20043;-78
2023/01/15 02:08:21;;;;;;;0.65;0.30;;;11.80;99.90;;;;;;4943895;29;20048;-78
2023/01/15 02:10:51;;;;;;;0.63;0.10;;;11.80;99.90;;;;;;4945088;29;20058;-78
2023/01/15 02:13:51;;;;;;;0.10;0.10;;;11.90;99.90;;;;;;4943844;29;20059;-78
2023/01/15 02:16:35;;;;;;;0.50;0.15;;;11.90;99.90;;;;;;4935614;29;20059;-78
2023/01/15 02:19:37;;;;;;;0.52;0.30;;;11.90;99.90;;;;;;4940815;29;20534;-79
2023/01/15 02:22:24;;;;;;;0.15;0.15;;;11.90;99.90;;;;;;4929611;29;20048;-78
2023/01/15 02:24:57;;;;;;;0.52;0.25;;;12.00;99.90;;;;;;4921954;29;20048;-79
2023/01/15 02:27:24;;;;;;;0.20;0.20;;;12.00;99.90;;;;;;4936157;29;20056;-78
2023/01/15 02:30:11;;;;;;;0.90;0.30;;;12.00;99.90;;;;;;4949471;29;20047;-78
2023/01/15 02:32:50;;;;;;;0.25;0.10;;;12.00;99.90;;;;;;4944947;29;20058;-79
2023/01/15 02:35:24;;;;;;;0.28;0.20;;;12.00;99.90;;;;;;4940856;29;20047;-78
2023/01/15 02:37:54;;;;;;;0.47;0.20;;;12.00;99.90;;;;;;4945544;29;20134;-78
2023/01/15 02:40:23;;;;;;;0.20;0.20;;;12.00;99.90;;;;;;4958134;28;20517;-79
2023/01/15 02:42:50;;;;;;;0.13;0.10;;;12.10;99.90;;;;;;4938638;29;20044;-79
2023/01/15 02:45:23;;;;;;;0.20;0.20;;;12.10;99.90;;;;;;4940246;28;20047;-78
2023/01/15 02:47:53;;;;;;;0.10;0.10;;;12.10;99.90;;;;;;4935387;29;20105;-78
2023/01/15 02:50:24;;;;;;;0.52;0.17;;;12.10;99.90;;;;;;4935202;29;20058;-78
2023/01/15 02:52:57;;;;;;;0.95;0.20;;;12.10;99.90;;;;;;4936474;29;20052;-78
2023/01/15 02:55:29;;;;;;;0.10;0.10;;;12.10;99.90;;;;;;4950070;28;20137;-78
2023/01/15 02:58:00;;;;;;;0.47;0.25;;;12.10;99.90;;;;;;4945362;29;20058;-78
2023/01/15 03:00:30;;;;;;;1.38;0.20;;;12.20;99.90;;;;;;4943986;28;20091;-78
2023/01/15 03:03:10;;;;;;;0.10;0.10;;;12.10;99.90;;;;;;4944069;29;20035;-78
2023/01/15 03:05:47;;;;;;;0.82;0.20;;;12.20;99.90;;;;;;4942522;29;20051;-78
2023/01/15 03:08:14;;;;;;;0.20;0.20;;;12.20;99.90;;;;;;4940323;29;20053;-78
2023/01/15 03:11:13;;;;;;;0.32;0.20;;;12.20;99.90;;;;;;4939922;28;20086;-78
2023/01/15 03:13:47;;;;;;;2.25;0.32;;;12.20;99.90;;;;;;4936753;29;20074;-77
2023/01/15 03:16:36;;;;;;;0.40;0.25;;;12.20;99.90;;;;;;4950678;28;20055;-78
2023/01/15 03:19:07;;;;;;;1.23;0.30;;;12.20;99.90;;;;;;4936739;29;20051;-78
2023/01/15 03:21:57;;;;;;;0.50;0.30;;;12.20;99.90;;;;;;4947408;28;20489;-78
2023/01/15 03:24:32;;;;;;;1.20;0.22;;;12.20;99.90;;;;;;4948295;28;20049;-78
2023/01/15 03:27:00;;;;;;;0.52;0.20;;;12.20;99.90;;;;;;4942422;29;20044;-78
2023/01/15 03:29:32;;;;;;;0.32;0.20;;;12.20;99.90;;;;;;4943519;29;20047;-78
2023/01/15 03:32:00;;;;;;;0.43;0.20;;;12.20;99.90;;;;;;4940253;29;20521;-79
2023/01/15 03:34:49;;;;;;;0.55;0.20;;;12.20;99.90;;;;;;4939315;28;20422;-78
2023/01/15 03:37:17;;;;;;;0.20;0.20;;;12.20;99.90;;;;;;4937093;29;20517;-78
2023/01/15 03:39:43;;;;;;;0.40;0.30;;;12.20;99.90;;;;;;4937943;29;20052;-78
2023/01/15 03:42:13;;;;;;;1.35;0.20;;;12.20;99.90;;;;;;4938873;29;20440;-78
2023/01/15 03:45:03;;;;;;;0.22;0.20;;;12.20;99.90;;;;;;4942055;29;20482;-79
2023/01/15 03:47:52;;;;;;;0.30;0.30;;;12.20;99.90;;;;;;4948874;29;20047;-78
2023/01/15 03:50:24;;;;;;;0.80;0.20;;;12.30;99.90;;;;;;4951100;29;20047;-78
2023/01/15 03:52:53;;;;;;;0.32;0.20;;;12.20;99.90;;;;;;4945541;29;20050;-77
2023/01/15 03:55:31;;;;;;;0.52;0.30;;;12.20;99.90;;;;;;4947745;28;20051;-78
2023/01/15 03:58:06;;;;;;;0.20;0.20;;;12.20;99.90;;;;;;4943011;29;20048;-78
2023/01/15 04:00:37;;;;;;;0.17;0.17;;;12.30;99.90;;;;;;4940259;29;20044;-77
2023/01/15 04:03:08;;;;;;;0.20;0.20;;;12.20;99.90;;;;;;4956419;28;20047;-78
2023/01/15 04:05:36;;;;;;;0.15;0.10;;;12.20;99.90;;;;;;4939616;29;20055;-78
2023/01/15 04:08:04;;;;;;;0.20;0.20;;;12.20;99.90;;;;;;4938022;29;20050;-78
2023/01/15 04:10:31;;;;;;;0.20;0.20;;;12.20;99.90;;;;;;4942101;29;20055;-78
2023/01/15 04:12:58;;;;;;;0.10;0.10;;;12.20;99.90;;;;;;4949492;29;20043;-77
2023/01/15 04:15:24;;;;;;;0.32;0.10;;;12.20;99.90;;;;;;4950432;29;20054;-78
2023/01/15 04:17:51;;;;;;;0.20;0.20;;;12.30;99.90;;;;;;4947626;28;20040;-78
2023/01/15 04:20:18;;;;;;;0.10;0.10;;;12.30;99.90;;;;;;4944591;29;20500;-78
2023/01/15 04:22:44;;;;;;;2.15;0.20;;;12.30;99.90;;;;;;4945738;29;20363;-80
2023/01/15 04:25:11;;;;;;;0.38;0.30;;;12.30;99.90;;;;;;4944827;29;20077;-78
2023/01/15 04:27:38;;;;;;;0.63;0.20;;;12.30;99.90;;;;;;4940124;29;20074;-78
2023/01/15 04:30:05;;;;;;;0.20;0.20;;;12.30;99.90;;;;;;4956080;28;20054;-78
2023/01/15 04:32:32;;;;;;;0.80;0.30;;;12.40;99.90;;;;;;4939558;28;20055;-78
2023/01/15 04:34:58;;;;;;;0.63;0.20;;;12.40;99.90;;;;;;4938666;29;20062;-78
2023/01/15 04:37:25;;;;;;;0.98;0.20;;;12.40;99.90;;;;;;4948860;28;20150;-78
2023/01/15 04:39:52;;;;;;;0.70;0.20;;;12.40;99.90;;;;;;4949873;29;20133;-78
2023/01/15 04:45:04;;;;;;;0.28;0.28;;;12.40;99.90;;;;;;4947516;29;20044;-79
2023/01/15 04:47:31;;;;;;;0.63;0.20;;;12.40;99.90;;;;;;4960804;28;20062;-78
2023/01/15 04:49:58;;;;;;;2.92;0.40;;;12.40;99.90;;;;;;4945771;29;20046;-78
2023/01/15 04:52:24;;;;;;;0.20;0.20;;;12.40;99.90;;;;;;4939856;29;20054;-78
2023/01/15 04:54:53;;;;;;;0.45;0.30;;;12.40;99.90;;;;;;4937798;29;20496;-78
2023/01/15 04:57:20;;;;;;;0.75;0.20;;;12.40;99.90;;;;;;4938075;29;20047;-78
2023/01/15 04:59:47;;;;;;;0.88;0.20;;;12.40;99.90;;;;;;4937044;29;20130;-78
2023/01/15 05:02:13;;;;;;;0.38;0.30;;;12.40;99.90;;;;;;4947503;29;20424;-78
2023/01/15 05:04:41;;;;;;;1.75;0.30;;;12.40;99.90;;;;;;4947121;28;20473;-78
2023/01/15 05:07:09;;;;;;;4.10;0.60;;;12.40;99.90;;;;;;4950197;28;20501;-78
2023/01/15 05:09:35;;;;;;;1.02;0.20;;;12.40;99.90;;;;;;4946531;28;20062;-77
2023/01/15 05:12:02;;;;;;;0.50;0.20;;;12.40;99.90;;;;;;4942347;29;20526;-77
2023/01/15 05:14:29;;;;;;;0.75;0.30;;;12.40;99.90;;;;;;4943944;29;20058;-78
2023/01/15 05:16:55;;;;;;;0.45;0.20;;;12.40;99.90;;;;;;4943215;29;20493;-79
2023/01/15 05:19:22;;;;;;;0.38;0.20;;;12.40;99.90;;;;;;4939914;28;20438;-78
2023/01/15 05:21:50;;;;;;;0.73;0.20;;;12.40;99.90;;;;;;4953447;28;20406;-78
2023/01/15 05:24:18;;;;;;;1.13;0.63;;;12.40;99.90;;;;;;4936960;29;20486;-78
2023/01/15 05:26:44;;;;;;;0.65;0.40;;;12.50;99.90;;;;;;4941831;29;20103;-79
2023/01/15 05:29:12;;;;;;;1.10;0.20;;;12.40;99.90;;;;;;4946778;28;20047;-78
2023/01/15 05:31:40;;;;;;;1.48;0.30;;;12.50;99.90;;;;;;4946225;28;20047;-78
2023/01/15 05:34:08;;;;;;;0.20;0.20;;;12.40;99.90;;;;;;4946769;28;20054;-78
2023/01/15 05:36:36;;;;;;;0.90;0.40;;;12.50;99.90;;;;;;4959493;28;20048;-79
2023/01/15 05:39:03;;;;;;;0.45;0.25;;;12.50;99.90;;;;;;4942678;29;20051;-78
2023/01/15 05:41:48;;;;;;;1.67;0.40;;;12.50;99.90;;;;;;4942981;29;20051;-78
2023/01/15 05:44:18;;;;;;;2.22;0.30;;;12.50;99.90;;;;;;4939662;29;20047;-78
2023/01/15 05:46:45;;;;;;;0.40;0.30;;;12.50;99.90;;;;;;4937997;29;20048;-78
2023/01/15 05:49:16;;;;;;;0.60;0.55;;;12.50;99.90;;;;;;4933985;29;20047;-78
2023/01/15 05:51:43;;;;;;;0.17;0.17;;;12.50;99.90;;;;;;4952558;28;20051;-78
2023/01/15 05:54:16;;;;;;;0.60;0.30;;;12.40;99.90;;;;;;4949226;28;20049;-78
2023/01/15 05:56:44;;;;;;;0.50;0.30;;;12.50;99.90;;;;;;4933897;29;20135;-78
2023/01/15 05:59:12;;;;;;;0.93;0.55;;;12.50;99.90;;;;;;4947392;28;20126;-77
2023/01/15 06:01:39;;;;;;;1.35;0.40;;;12.40;99.90;;;;;;4946663;28;20052;-79
2023/01/15 06:04:06;;;;;;;0.55;0.30;;;12.40;99.90;;;;;;4941048;29;20046;-78
2023/01/15 06:06:34;;;;;;;0.98;0.40;;;12.40;99.90;;;;;;4956497;28;20596;-78
2023/01/15 06:09:03;;;;;;;0.98;0.60;;;12.40;99.90;;;;;;4940201;29;20046;-78
2023/01/15 06:11:30;;;;;;;2.25;0.50;;;12.40;99.90;;;;;;4936415;29;20533;-78
2023/01/15 06:13:57;;;;;;;3.30;0.40;;;12.40;99.90;;;;;;4951970;28;20130;-79
2023/01/15 06:16:23;;;;;;;0.25;0.20;;;12.40;99.90;;;;;;4935795;29;20055;-78
2023/01/15 06:18:50;;;;;;;1.48;0.30;;;12.40;99.90;;;;;;4949927;29;20130;-78
2023/01/15 06:21:17;;;;;;;1.95;0.40;;;12.40;99.90;;;;;;4944199;29;20143;-78
2023/01/15 06:23:44;;;;;;;1.23;0.30;;;12.30;99.90;;;;;;4943313;29;20050;-78
2023/01/15 06:26:13;;;;;;;0.47;0.30;;;12.30;99.90;;;;;;4946556;28;20548;-78
2023/01/15 06:28:41;;;;;;;0.40;0.40;;;12.20;99.90;;;;;;4942703;29;20062;-79
2023/01/15 06:31:10;;;;;;;0.40;0.30;;;12.20;99.90;;;;;;4941482;29;20287;-79
2023/01/15 06:33:37;;;;;;;0.30;0.30;;;12.10;99.90;;;;;;4939410;29;20099;-78
2023/01/15 06:36:06;;;;;;;0.68;0.30;;;12.00;99.90;;;;;;4939343;28;20516;-78
2023/01/15 06:38:33;;;;;;;0.25;0.25;;;12.00;99.90;;;;;;4937349;29;20047;-79
2023/01/15 06:41:02;;;;;;;0.57;0.40;;;12.00;99.90;;;;;;4935774;29;20055;-78
2023/01/15 06:49:01;;;;;;;0.30;0.30;;;11.80;99.90;;;;;;4944510;29;20047;-78
2023/01/15 06:51:28;;;;;;;2.03;0.30;;;11.70;99.90;;;;;;4960056;28;20051;-78
2023/01/15 06:53:56;;;;;;;0.30;0.30;;;11.60;99.90;;;;;;4941325;29;20047;-78
2023/01/15 06:56:23;;;;;;;0.20;0.20;;;11.60;99.90;;;;;;4939760;28;20494;-78
2023/01/15 06:58:50;;;;;;;1.10;0.30;;;11.60;99.90;;;;;;4940766;29;20047;-78
2023/01/15 07:01:16;;;;;;;0.43;0.30;;;11.50;99.90;;;;;;4953978;28;20661;-78
2023/01/15 07:03:43;;;;;;;1.08;0.20;;;11.50;99.90;;;;;;4937167;29;20047;-79
2023/01/15 07:06:12;;;;;;;0.40;0.30;;;11.40;99.90;;;;;;4936297;29;20046;-78
2023/01/15 07:08:39;;;;;;;0.30;0.30;;;11.40;99.90;;;;;;4936626;29;20047;-78
2023/01/15 07:11:08;;;;;;;0.70;0.40;;;11.40;99.90;;;;;;4949152;28;20047;-78
2023/01/15 07:13:35;;;;;;;0.68;0.47;;;11.40;99.90;;;;;;4944729;28;20138;-78
2023/01/15 07:16:03;;;;;;;0.30;0.30;;;11.40;99.90;;;;;;4947200;29;20048;-79
2023/01/15 07:18:32;;;;;;;0.85;0.30;;;11.40;99.90;;;;;;4947158;29;20051;-78
2023/01/15 07:20:59;;;;;;;0.45;0.30;;;11.30;99.90;;;;;;4948010;28;20043;-78
2023/01/15 07:23:27;;;;;;;1.58;0.60;;;11.30;99.90;;;;;;4941900;29;20095;-78
2023/01/15 07:25:54;;;;;;;1.73;0.95;;;11.30;99.90;;;;;;4944426;29;20102;-79
2023/01/15 07:28:23;;;;;;;1.85;0.70;;;11.30;99.90;;;;;;4957539;28;20047;-78
2023/01/15 07:30:50;;;;;;;0.20;0.20;;;11.30;99.90;;;;;;4937908;29;20063;-77
2023/01/15 07:33:16;;;;;;;0.50;0.50;;;11.20;99.90;;;;;;4953271;28;20048;-78
2023/01/15 07:35:43;;;;;;;0.80;0.30;;;11.20;99.90;;;;;;4952048;29;20055;-77
2023/01/15 07:38:10;;;;;;;0.75;0.47;;;11.20;99.90;;;;;;4954024;28;20513;-78
2023/01/15 07:40:37;;;;;;;0.20;0.20;;;11.00;99.90;;;;;;4945664;28;20138;-78
2023/01/15 07:51:20;;;;;;;0.20;0.20;;;10.80;99.90;;;;;;4941129;29;20052;-78
2023/01/15 07:53:47;;;;;;;0.40;0.40;;;10.80;99.90;;;;;;4941835;29;20493;-78
2023/01/15 07:56:14;;;;;;;2.05;0.60;;;10.70;99.90;;;;;;4957995;28;20707;-77
2023/01/15 07:58:40;;;;;;;2.08;0.47;;;10.60;99.90;;;;;;4937547;29;20418;-78
2023/01/15 08:01:07;;;;;;;0.35;0.35;;;10.60;99.90;;;;;;4949321;29;20048;-78
2023/01/15 08:03:34;;;;;;;0.38;0.30;;;10.50;99.90;;;;;;4952849;28;20058;-78
2023/01/15 08:06:01;;;;;;;0.90;0.38;;;10.50;99.90;;;;;;4947239;28;20106;-77
2023/01/15 08:08:27;;;;;;;0.40;0.40;;;10.60;99.90;;;;;;4945801;29;20043;-78
2023/01/15 08:16:25;;;;;;;0.63;0.43;;;10.40;99.90;;;;;;4942019;29;20166;-77
2023/01/15 08:18:51;;;;;;;0.30;0.30;;;10.20;99.90;;;;;;4941498;29;20079;-77
2023/01/15 08:21:18;;;;;;;0.95;0.32;;;10.20;99.90;;;;;;4939700;29;20074;-77
2023/01/15 08:23:46;;;;;;;0.68;0.40;;;10.00;99.90;;;;;;4937696;29;20047;-77
2023/01/15 08:26:13;;;;;;;0.40;0.40;;;9.80;99.90;;;;;;4945481;28;20102;-77
2023/01/15 08:28:39;;;;;;;0.45;0.20;;;9.80;99.90;;;;;;4949050;29;20059;-79
2023/01/15 08:31:07;;;;;;;0.70;0.47;;;9.80;99.90;;;;;;4952057;28;20044;-77
2023/01/15 08:33:34;;;;;;;0.40;0.40;;;9.70;99.90;;;;;;4943841;28;20101;-78
2023/01/15 08:36:01;;;;;;;1.63;0.60;;;9.70;99.90;;;;;;4947457;29;20901;-77
2023/01/15 08:38:28;;;;;;;0.70;0.60;;;9.70;99.90;;;;;;4942261;29;20111;-78
2023/01/15 08:40:57;;;;;;;0.57;0.50;;;9.60;99.90;;;;;;4943523;28;20421;-76
2023/01/15 08:43:26;;;;;;;0.90;0.50;;;9.50;99.90;;;;;;4941873;29;20102;-79
2023/01/15 08:45:57;;;;;;;0.52;0.50;;;9.50;99.90;;;;;;4938413;29;20058;-77
2023/01/15 08:48:24;;;;;;;0.57;0.35;;;9.50;99.90;;;;;;4936956;29;20043;-76
2023/01/15 08:50:51;;;;;;;1.33;0.50;;;9.40;99.90;;;;;;4938652;29;20043;-78
2023/01/15 08:53:19;;;;;;;0.57;0.38;;;9.40;99.90;;;;;;4949283;28;20512;-77
2023/01/15 08:55:46;;;;;;;0.60;0.40;;;9.30;99.90;;;;;;4948078;29;20047;-77
2023/01/15 08:58:14;;;;;;;0.63;0.50;;;9.30;99.90;;;;;;4961147;28;20082;-78
2023/01/15 09:00:42;;;;;;;0.40;0.40;;;9.30;99.90;;;;;;4945611;29;20055;-77
2023/01/15 09:03:09;;;;;;;0.65;0.60;;;9.30;99.90;;;;;;4946654;28;20126;-77
2023/01/15 09:05:36;;;;;;;1.27;0.95;;;9.20;99.90;;;;;;4944063;28;20054;-77
2023/01/15 09:08:04;;;;;;;3.28;0.88;;;9.20;99.90;;;;;;4940816;29;20047;-78
2023/01/15 09:10:32;;;;;;;1.65;1.00;;;9.20;99.90;;;;;;4940150;29;20143;-78
2023/01/15 09:13:00;;;;;;;2.45;1.20;;;9.10;99.90;;;;;;4936070;29;20043;-78
2023/01/15 09:15:28;;;;;;;1.98;1.13;;;9.00;99.90;;;;;;4951162;28;20167;-77
2023/01/15 09:17:55;;;;;;;1.67;1.20;;;8.90;99.90;;;;;;4948105;29;20060;-77
2023/01/15 09:20:22;;;;;;;0.77;0.60;;;8.80;99.90;;;;;;4948101;29;20073;-77
2023/01/15 09:22:50;;;;;;;5.38;2.33;;;8.70;99.90;;;;;;4948695;29;20051;-77
2023/01/15 09:25:18;;;;;;;1.27;1.02;;;8.70;99.90;;;;;;4931957;29;20501;-77
2023/01/15 09:27:45;;;;;;;2.05;1.17;;;8.70;99.90;;;;;;4943259;29;20055;-80
2023/01/15 09:30:17;;;;;;;2.30;1.00;;;8.70;99.90;;;;;;4933683;29;20059;-77
2023/01/15 09:32:44;;;;;;;0.95;0.60;;;8.80;99.90;;;;;;4935849;29;20047;-78
2023/01/15 09:35:11;;;;;;;0.50;0.50;;;8.70;99.90;;;;;;4936536;29;20070;-76
2023/01/15 09:37:38;;;;;;;1.30;0.95;;;8.70;99.90;;;;;;4938536;28;20057;-77
2023/01/15 09:40:07;;;;;;;0.60;0.50;;;8.70;99.90;;;;;;4936080;29;20079;-77
2023/01/15 09:42:46;;;;;;;0.98;0.70;;;8.70;99.90;;;;;;4939952;29;20056;-78
2023/01/15 09:45:16;;;;;;;1.05;0.47;;;8.80;99.90;;;;;;4936039;29;20058;-77
2023/01/15 09:48:11;;;;;;;0.50;0.50;;;8.50;99.90;;;;;;4944503;29;20056;-78
2023/01/15 09:50:52;;;;;;;0.50;0.50;;;8.40;99.90;;;;;;4939501;29;20051;-77
2023/01/15 09:53:54;;;;;;;0.60;0.60;;;8.40;99.90;;;;;;4936121;29;20048;-77
2023/01/15 09:56:24;;;;;;;0.80;0.50;;;8.30;99.90;;;;;;4938749;29;20051;-77
2023/01/15 09:58:52;;;;;;;0.40;0.40;;;8.20;99.90;;;;;;4931761;29;20051;-77
2023/01/15 10:01:28;;;;;;;0.73;0.47;;;8.30;99.90;;;;;;4935954;29;20047;-77
2023/01/15 10:04:24;;;;;;;1.67;0.90;;;8.30;99.90;;;;;;4935923;29;20039;-78
2023/01/15 10:07:01;;;;;;;2.08;0.90;;;8.30;99.90;;;;;;4940331;29;20044;-77
2023/01/15 10:09:36;;;;;;;0.80;0.60;;;8.30;99.90;;;;;;4938633;29;20424;-77
2023/01/15 10:12:34;;;;;;;2.88;1.70;;;8.30;99.90;;;;;;4943147;29;20082;-77
2023/01/15 10:15:21;;;;;;;1.00;0.80;;;8.30;99.90;;;;;;4940536;29;20048;-77
2023/01/15 10:17:56;;;;;;;1.48;1.00;;;8.40;99.90;;;;;;4937349;29;20498;-78
2023/01/15 10:20:44;;;;;;;4.20;1.55;;;8.40;99.90;;;;;;4955530;28;20152;-80
2023/01/15 10:23:26;;;;;;;1.15;0.88;;;8.30;99.90;;;;;;4937400;29;20052;-78
2023/01/15 10:26:17;;;;;;;1.00;0.80;;;8.20;99.90;;;;;;4936074;29;20056;-77
2023/01/15 10:29:05;;;;;;;1.13;0.90;;;8.10;99.90;;;;;;4933470;29;20055;-78
2023/01/15 10:31:44;;;;;;;4.13;1.95;;;8.10;99.90;;;;;;4932700;29;20058;-78
2023/01/15 10:34:38;;;;;;;3.67;2.08;;;8.20;99.90;;;;;;4941532;29;20062;-77
2023/01/15 10:37:13;;;;;;;1.55;0.90;;;8.20;99.90;;;;;;4938658;29;20066;-78
2023/01/15 10:40:04;;;;;;;0.95;0.80;;;8.20;99.90;;;;;;4941659;29;20494;-78
2023/01/15 10:43:20;;;;;;;0.82;0.63;;;8.20;99.90;;;;;;4940167;29;20485;-77
2023/01/15 10:45:58;;;;;;;1.55;0.90;;;8.20;99.90;;;;;;4874629;29;20090;-78
2023/01/15 10:48:45;;;;;;;1.42;1.05;;;8.20;99.90;;;;;;4931980;29;20051;-77
2023/01/15 10:51:41;;;;;;;1.00;0.82;;;8.20;99.90;;;;;;4939837;29;20048;-77
2023/01/15 10:54:39;;;;;;;0.70;0.70;;;8.20;99.90;;;;;;4938578;29;20048;-77
2023/01/15 10:57:27;;;;;;;0.88;0.80;;;8.10;99.90;;;;;;4936458;29;20477;-76
2023/01/15 10:59:59;;;;;;;2.30;0.90;;;8.10;99.90;;;;;;4950900;29;20086;-77
2023/01/15 11:02:50;;;;;;;1.30;0.80;;;8.10;99.90;;;;;;4939749;28;20048;-77
2023/01/15 11:05:20;;;;;;;2.20;0.98;;;8.00;99.90;;;;;;4946146;29;20055;-78
2023/01/15 11:07:49;;;;;;;2.75;0.90;;;7.90;99.90;;;;;;4947302;29;20075;-77
2023/01/15 11:10:37;;;;;;;1.40;0.82;;;7.90;99.90;;;;;;4940960;29;20051;-78
2023/01/15 11:21:48;;;;;;;0.82;0.70;;;7.80;99.90;;;;;;4937063;29;20103;-77
2023/01/15 11:24:17;;;;;;;1.95;0.70;;;7.80;99.90;;;;;;4957919;28;20505;-77
2023/01/15 11:26:51;;;;;;;1.40;0.80;;;7.70;99.90;;;;;;4951367;28;20047;-77
2023/01/15 11:29:32;;;;;;;1.25;0.80;;;7.70;99.90;;;;;;4944639;29;20146;-78
2023/01/15 11:31:59;;;;;;;1.52;0.80;;;7.70;99.90;;;;;;4949167;29;20126;-77
2023/01/15 11:34:25;;;;;;;2.10;0.95;;;7.70;99.90;;;;;;4945538;28;20051;-77
2023/01/15 11:37:04;;;;;;;1.08;0.60;;;7.80;99.90;;;;;;4943355;29;20054;-77
2023/01/15 11:39:31;;;;;;;2.42;1.10;;;7.80;99.90;;;;;;4942227;29;20510;-78
2023/01/15 11:50:52;;;;;;;2.17;0.80;;;7.80;99.90;;;;;;4937680;29;20061;-77
2023/01/15 11:53:25;;;;;;;4.20;1.60;;;7.80;99.90;;;;;;4937978;29;20540;-79
2023/01/15 11:55:59;;;;;;;1.90;1.20;;;7.90;99.90;;;;;;4944354;29;20494;-78
2023/01/15 11:58:30;;;;;;;0.98;0.75;;;7.90;99.90;;;;;;4944758;29;20058;-78
2023/01/15 12:00:58;;;;;;;0.77;0.77;;;7.80;99.90;;;;;;4942362;28;20089;-78
2023/01/15 12:03:28;;;;;;;0.88;0.70;;;7.80;99.90;;;;;;4941875;28;20058;-78
2023/01/15 12:05:55;;;;;;;1.52;0.60;;;7.80;99.90;;;;;;4943439;29;20050;-77
2023/01/15 12:08:51;;;;;;;1.58;0.95;;;7.80;99.90;;;;;;4940765;29;20043;-77
2023/01/15 12:11:37;;;;;;;1.35;0.90;;;7.80;99.90;;;;;;4938457;29;20051;-78
2023/01/15 12:14:50;;;;;;;0.90;0.50;;;7.80;99.90;;;;;;4936867;29;20052;-77
2023/01/15 12:17:32;;;;;;;4.07;0.65;;;7.80;99.90;;;;;;4949548;29;20059;-78
2023/01/15 12:20:06;;;;;;;1.60;0.68;;;7.70;99.90;;;;;;4944793;29;20502;-77
2023/01/15 12:22:59;;;;;;;1.75;0.73;;;7.70;99.90;;;;;;4938383;29;20056;-77
2023/01/15 12:25:44;;;;;;;0.70;0.70;;;7.70;99.90;;;;;;4940764;29;20043;-78
2023/01/15 12:28:13;;;;;;;0.60;0.50;;;7.70;99.90;;;;;;4939052;29;20067;-77
2023/01/15 12:30:47;;;;;;;0.57;0.50;;;7.50;99.90;;;;;;4934337;29;20163;-77
2023/01/15 12:33:35;;;;;;;2.10;0.65;;;7.50;99.90;;;;;;4932979;29;20434;-78
2023/01/15 12:36:13;;;;;;;0.95;0.50;;;7.50;99.90;;;;;;4935816;29;20051;-77
2023/01/15 12:38:50;;;;;;;2.10;0.68;;;7.40;99.90;;;;;;4936402;29;20403;-77
2023/01/15 12:41:25;;;;;;;1.75;0.63;;;7.40;99.90;;;;;;4936505;29;20055;-77
2023/01/15 12:46:52;;;;;;;0.55;0.47;;;7.40;99.90;;;;;;4917071;29;20045;-77
2023/01/15 12:49:48;;;;;;;0.93;0.50;;;7.50;99.90;;;;;;4942706;28;20055;-78
2023/01/15 12:52:33;;;;;;;1.05;0.50;;;7.50;99.90;;;;;;4936281;29;20075;-78
2023/01/15 12:55:13;;;;;;;1.10;0.70;;;7.50;99.90;;;;;;4939508;29;20043;-77
2023/01/15 12:57:44;;;;;;;;;;;7.60;99.90;;;;;;4939941;29;20055;-79
2023/01/15 13:00:34;;;;;;;3.20;1.65;;;7.60;99.90;;;;;;4935287;29;19966;-77
2023/01/15 13:03:25;;;;;;;2.43;1.20;;;7.60;99.90;;;;;;4932684;29;20081;-76
2023/01/15 13:05:59;;;;;;;1.20;0.70;;;7.60;99.90;;;;;;4934991;29;20054;-78
2023/01/15 13:08:36;;;;;;;5.00;0.63;;;7.60;99.90;;;;;;4945323;29;20057;-77
2023/01/15 13:11:03;;;;;;;1.77;0.43;;;7.60;99.90;;;;;;4945454;28;20043;-75
2023/01/15 13:13:34;;;;;;;0.45;0.45;;;7.60;99.90;;;;;;4940609;28;20056;-77
2023/01/15 13:16:23;;;;;;;1.75;0.60;;;7.70;99.90;;;;;;4936173;29;20065;-77
2023/01/15 13:19:27;;;;;;;1.92;0.80;;;7.60;99.90;;;;;;4937606;29;20051;-78
2023/01/15 13:21:57;;;;;;;4.72;0.57;;;7.60;99.90;;;;;;4941112;29;20192;-78
2023/01/15 13:24:52;;;;;;;0.85;0.50;;;7.50;99.90;;;;;;4941450;29;20138;-77
2023/01/15 13:27:41;;;;;;;1.17;0.50;;;7.40;99.90;;;;;;4935976;29;20048;-77
2023/01/15 13:30:20;;;;;;;1.42;0.70;;;7.30;99.90;;;;;;4940107;29;20039;-78
2023/01/15 13:32:58;;;;;;;3.03;1.05;;;7.30;99.90;;;;;;5122959;27;20461;-76
2023/01/15 13:35:43;;;;;;;1.88;0.52;;;7.30;99.90;;;;;;5100305;28;20059;-77
2023/01/15 13:38:17;;;;;;;1.60;0.93;;;7.30;99.90;;;;;;5102621;28;20087;-75
2023/01/15 13:40:50;;;;;;;3.80;0.75;;;7.40;99.90;;;;;;5079875;28;20043;-77
2023/01/15 13:43:38;;;;;;;1.05;0.50;;;7.40;99.90;;;;;;5080422;28;20039;-77
2023/01/15 13:46:09;;;;;;;2.03;0.60;;;7.50;99.90;;;;;;5079358;28;20036;-77
2023/01/15 13:48:43;;;;;;;5.18;1.00;;;7.50;99.90;;;;;;5082508;28;20131;-77
2023/01/15 13:51:26;;;;;;;1.67;0.60;;;7.50;99.90;;;;;;5079622;28;20048;-76
2023/01/15 13:53:55;;;;;;;1.38;0.38;;;7.60;99.90;;;;;;5075074;28;20045;-77
2023/01/15 13:56:31;;;;;;;1.15;0.55;;;7.50;99.90;;;;;;5073448;28;20052;-76
2023/01/15 13:59:04;;;;;;;2.50;0.60;;;7.50;99.90;;;;;;5074911;28;20053;-76
2023/01/15 14:01:33;;;;;;;0.73;0.55;;;7.50;99.90;;;;;;5082249;28;20080;-76
2023/01/15 14:04:04;;;;;;;4.57;0.93;;;7.60;99.90;;;;;;5076405;28;20095;-76
2023/01/15 14:06:48;;;;;;;3.90;0.50;;;7.80;99.90;;;;;;5079910;28;20095;-78